Time;durP1;ratioP1;P1;durP2;ratioP2;P2;SDS_P1;SDS_P2;PMS_P1;PMS_P2;Temp;Humidity;BMP_temperature;BMP_pressure;BME280_temperature;BME280_humidity;BME280_pressure;Samples;Min_cycle;Max_cycle;Signal;HPM_P1;HPM_P2
2023/07/10 00:00:29;;;;;;;4.72;3.58;;;;;;;;;;10333215;28;20079;-58
2023/07/10 00:05:27;;;;;;;4.63;4.13;;;;;;;;;;10330777;28;20083;-58
2023/07/10 00:10:25;;;;;;;5.63;3.47;;;;;;;;;;10332088;28;20072;-59
2023/07/10 00:15:25;;;;;;;3.70;3.40;;;;;;;;;;10328739;28;20064;-59
2023/07/10 00:20:25;;;;;;;4.30;3.90;;;;;;;;;;10330779;28;20082;-58
2023/07/10 00:25:24;;;;;;;7.50;3.58;;;;;;;;;;10334397;28;20064;-60
2023/07/10 00:30:23;;;;;;;8.30;3.80;;;;;;;;;;10333286;28;20076;-58
2023/07/10 00:35:23;;;;;;;6.85;3.67;;;;;;;;;;10329595;28;20072;-58
2023/07/10 00:40:23;;;;;;;7.43;3.47;;;;;;;;;;10334967;28;20068;-58
2023/07/10 00:45:22;;;;;;;3.83;3.42;;;;;;;;;;10335049;28;20071;-58
2023/07/10 00:50:22;;;;;;;6.68;3.83;;;;;;;;;;10333334;28;20114;-59
2023/07/10 00:55:24;;;;;;;5.10;3.75;;;;;;;;;;10340541;28;20076;-59
2023/07/10 01:00:23;;;;;;;5.45;3.78;;;;;;;;;;10333714;28;20496;-58
2023/07/10 01:05:21;;;;;;;7.15;3.47;;;;;;;;;;10321482;28;20182;-59
2023/07/10 01:10:19;;;;;;;5.68;3.45;;;;;;;;;;10341227;28;20072;-59
2023/07/10 01:15:19;;;;;;;7.10;3.85;;;;;;;;;;10334477;28;20072;-59
2023/07/10 01:20:27;;;;;;;4.57;3.55;;;;;;;;;;10336449;28;20076;-58
2023/07/10 01:25:26;;;;;;;6.32;3.70;;;;;;;;;;10336940;28;20071;-58
2023/07/10 01:30:28;;;;;;;5.50;3.42;;;;;;;;;;10339520;28;20462;-58
2023/07/10 01:35:28;;;;;;;8.05;3.47;;;;;;;;;;10319199;28;20513;-58
2023/07/10 01:40:30;;;;;;;6.40;3.70;;;;;;;;;;10337112;28;20082;-58
2023/07/10 01:45:28;;;;;;;10.90;3.80;;;;;;;;;;10341754;28;20068;-59
2023/07/10 01:50:27;;;;;;;4.63;4.10;;;;;;;;;;10319038;28;20293;-58
2023/07/10 01:55:26;;;;;;;4.75;3.65;;;;;;;;;;10320118;28;20071;-58
2023/07/10 02:00:28;;;;;;;8.13;4.07;;;;;;;;;;10323537;28;20550;-59
2023/07/10 02:05:26;;;;;;;5.13;3.55;;;;;;;;;;10335470;28;20478;-59
2023/07/10 02:10:25;;;;;;;4.78;3.47;;;;;;;;;;10318156;28;20076;-58
2023/07/10 02:15:42;;;;;;;5.97;4.03;;;;;;;;;;10332261;28;20055;-58
2023/07/10 02:20:41;;;;;;;4.68;3.90;;;;;;;;;;10336229;28;20068;-58
2023/07/10 02:25:40;;;;;;;4.85;3.60;;;;;;;;;;10338532;28;20064;-59
2023/07/10 02:30:39;;;;;;;4.35;3.95;;;;;;;;;;10318976;28;20071;-58
2023/07/10 02:35:40;;;;;;;5.03;3.88;;;;;;;;;;10335814;28;20078;-59
2023/07/10 02:40:38;;;;;;;4.28;3.88;;;;;;;;;;10330401;28;20086;-58
2023/07/10 02:45:36;;;;;;;3.90;3.50;;;;;;;;;;10338409;28;20079;-59
2023/07/10 02:50:35;;;;;;;3.88;3.58;;;;;;;;;;10337433;28;20072;-59
2023/07/10 02:55:34;;;;;;;4.75;3.95;;;;;;;;;;10316744;28;20059;-58
2023/07/10 03:00:33;;;;;;;6.95;4.65;;;;;;;;;;10336264;28;20468;-58
2023/07/10 03:05:31;;;;;;;8.02;4.25;;;;;;;;;;10316646;28;20079;-58
2023/07/10 03:10:29;;;;;;;8.23;4.55;;;;;;;;;;10334622;28;20068;-58
2023/07/10 03:15:29;;;;;;;6.65;3.75;;;;;;;;;;10315726;28;20087;-58
2023/07/10 03:20:27;;;;;;;7.18;3.55;;;;;;;;;;10335516;28;20072;-58
2023/07/10 03:25:27;;;;;;;7.05;4.38;;;;;;;;;;10319740;28;20082;-60
2023/07/10 03:30:25;;;;;;;7.35;4.30;;;;;;;;;;10327460;28;20539;-60
2023/07/10 03:35:25;;;;;;;3.92;3.40;;;;;;;;;;10335197;28;20068;-59
2023/07/10 03:40:23;;;;;;;7.35;4.55;;;;;;;;;;10334039;28;20445;-59
2023/07/10 03:45:21;;;;;;;8.23;4.00;;;;;;;;;;10327639;28;20079;-59
2023/07/10 03:50:19;;;;;;;4.43;4.03;;;;;;;;;;10336829;28;20076;-58
2023/07/10 03:55:19;;;;;;;5.43;3.85;;;;;;;;;;10332286;28;20110;-58
2023/07/10 04:00:17;;;;;;;6.13;3.97;;;;;;;;;;10333691;28;20068;-59
2023/07/10 04:05:15;;;;;;;8.30;4.53;;;;;;;;;;10326603;28;20079;-58
2023/07/10 04:10:16;;;;;;;5.78;5.13;;;;;;;;;;10329227;28;20071;-59
2023/07/10 04:15:15;;;;;;;9.57;5.38;;;;;;;;;;10330771;28;20064;-58
2023/07/10 04:20:13;;;;;;;6.30;4.50;;;;;;;;;;10327712;28;20525;-58
2023/07/10 04:25:12;;;;;;;8.32;5.90;;;;;;;;;;10333982;28;20079;-56
2023/07/10 04:30:12;;;;;;;5.82;4.10;;;;;;;;;;10338841;28;20467;-58
2023/07/10 04:35:14;;;;;;;6.72;5.22;;;;;;;;;;10336933;28;20071;-58
2023/07/10 04:40:15;;;;;;;6.07;5.13;;;;;;;;;;10335494;28;20078;-56
2023/07/10 04:45:13;;;;;;;8.38;5.22;;;;;;;;;;10334867;28;20083;-57
2023/07/10 04:50:13;;;;;;;9.07;5.13;;;;;;;;;;10342605;28;20075;-57
2023/07/10 04:55:12;;;;;;;11.77;6.10;;;;;;;;;;10340766;28;20596;-56
2023/07/10 05:00:10;;;;;;;6.25;4.93;;;;;;;;;;10335792;28;20072;-57
2023/07/10 05:05:09;;;;;;;6.28;4.85;;;;;;;;;;10334896;28;20083;-57
2023/07/10 05:10:10;;;;;;;7.20;5.35;;;;;;;;;;10339287;28;20056;-58
2023/07/10 05:15:09;;;;;;;15.98;14.43;;;;;;;;;;10335978;28;20087;-57
2023/07/10 05:20:08;;;;;;;24.23;17.17;;;;;;;;;;10335142;28;20509;-58
2023/07/10 05:25:06;;;;;;;10.57;4.57;;;;;;;;;;10335920;28;20072;-60
2023/07/10 05:30:07;;;;;;;8.65;4.97;;;;;;;;;;10336915;28;20064;-60
2023/07/10 05:35:06;;;;;;;9.90;5.30;;;;;;;;;;10345231;28;20068;-61
2023/07/10 05:40:04;;;;;;;10.98;6.18;;;;;;;;;;10338580;28;20079;-59
2023/07/10 05:45:03;;;;;;;4.97;4.00;;;;;;;;;;10333790;28;20072;-60
2023/07/10 05:50:03;;;;;;;6.68;4.63;;;;;;;;;;10335770;28;20533;-59
2023/07/10 05:55:02;;;;;;;4.78;4.38;;;;;;;;;;10327914;28;20348;-59
2023/07/10 06:00:00;;;;;;;7.55;5.28;;;;;;;;;;10311213;28;20075;-60
2023/07/10 06:05:03;;;;;;;4.72;4.22;;;;;;;;;;10332841;28;20076;-60
2023/07/10 06:10:02;;;;;;;7.05;4.75;;;;;;;;;;10333349;28;20068;-60
2023/07/10 06:15:00;;;;;;;7.18;4.95;;;;;;;;;;10332995;28;20080;-60
2023/07/10 06:19:58;;;;;;;6.38;4.88;;;;;;;;;;10334343;28;20498;-60
2023/07/10 06:24:58;;;;;;;8.13;4.63;;;;;;;;;;10334200;28;20067;-60
2023/07/10 06:29:56;;;;;;;5.10;4.60;;;;;;;;;;10332614;28;20079;-60
2023/07/10 06:34:54;;;;;;;5.68;4.85;;;;;;;;;;10333217;28;20520;-60
2023/07/10 06:40:08;;;;;;;5.72;5.13;;;;;;;;;;10332164;28;20067;-59
2023/07/10 06:45:06;;;;;;;10.18;4.72;;;;;;;;;;10332687;28;20071;-59
2023/07/10 06:50:05;;;;;;;6.85;4.97;;;;;;;;;;10333969;28;20100;-59
2023/07/10 06:55:04;;;;;;;5.93;5.15;;;;;;;;;;10331741;28;20087;-60
2023/07/10 07:00:04;;;;;;;7.03;5.22;;;;;;;;;;10333825;28;20064;-60
2023/07/10 07:05:02;;;;;;;5.75;4.82;;;;;;;;;;10327515;28;20076;-60
2023/07/10 07:10:01;;;;;;;6.63;4.28;;;;;;;;;;10331482;28;20665;-60
2023/07/10 07:14:59;;;;;;;6.20;3.75;;;;;;;;;;10331968;28;20056;-60
2023/07/10 07:19:59;;;;;;;8.50;4.22;;;;;;;;;;10331922;28;20079;-60
2023/07/10 07:24:57;;;;;;;8.35;3.63;;;;;;;;;;10329669;28;20071;-61
2023/07/10 07:29:55;;;;;;;4.43;3.47;;;;;;;;;;10328267;28;20079;-60
2023/07/10 07:34:53;;;;;;;8.60;3.95;;;;;;;;;;10330778;28;20505;-60
2023/07/10 07:39:54;;;;;;;7.18;4.10;;;;;;;;;;10330740;28;20064;-59
2023/07/10 07:44:52;;;;;;;4.65;3.88;;;;;;;;;;10331984;28;20072;-59
2023/07/10 07:49:51;;;;;;;8.60;4.60;;;;;;;;;;10330358;28;20083;-60
2023/07/10 07:54:50;;;;;;;8.35;4.78;;;;;;;;;;10322563;28;20397;-60
2023/07/10 07:59:50;;;;;;;6.30;4.78;;;;;;;;;;10320702;28;20088;-60
2023/07/10 08:04:48;;;;;;;7.03;4.30;;;;;;;;;;10327695;28;20064;-59
2023/07/10 08:09:47;;;;;;;5.63;3.83;;;;;;;;;;10330831;28;20584;-61
2023/07/10 08:14:45;;;;;;;5.55;4.80;;;;;;;;;;10331074;28;20713;-59
2023/07/10 08:19:45;;;;;;;5.35;4.85;;;;;;;;;;10332775;28;20525;-60
2023/07/10 08:24:43;;;;;;;10.43;7.13;;;;;;;;;;10330854;28;20086;-60
2023/07/10 08:29:41;;;;;;;9.00;7.03;;;;;;;;;;10329385;28;20068;-60
2023/07/10 08:34:40;;;;;;;7.82;6.07;;;;;;;;;;10328392;28;20521;-60
2023/07/10 08:39:39;;;;;;;5.82;3.97;;;;;;;;;;10329209;28;20520;-60
2023/07/10 08:44:38;;;;;;;5.70;4.13;;;;;;;;;;10327421;28;20076;-60
2023/07/10 08:49:39;;;;;;;6.22;4.50;;;;;;;;;;10325989;28;20079;-61
2023/07/10 08:54:38;;;;;;;12.07;4.47;;;;;;;;;;10329024;28;20091;-60
2023/07/10 08:59:43;;;;;;;5.35;4.30;;;;;;;;;;10330206;28;20072;-61
2023/07/10 09:04:43;;;;;;;10.23;4.13;;;;;;;;;;10327776;28;20083;-61
2023/07/10 09:09:44;;;;;;;6.95;4.20;;;;;;;;;;10330544;28;20071;-60
2023/07/10 09:14:48;;;;;;;4.22;3.83;;;;;;;;;;10338107;28;20520;-60
2023/07/10 09:19:46;;;;;;;;;;;;;;;;;;10332132;28;20074;-61
2023/07/10 09:24:46;;;;;;;4.95;4.30;;;;;;;;;;10336198;28;19964;-61
2023/07/10 09:29:46;;;;;;;4.25;3.78;;;;;;;;;;10336700;28;20068;-61
2023/07/10 09:34:46;;;;;;;7.97;3.90;;;;;;;;;;10335677;28;20079;-61
2023/07/10 09:39:46;;;;;;;5.47;3.25;;;;;;;;;;10335208;28;20080;-61
2023/07/10 09:44:54;;;;;;;8.45;4.30;;;;;;;;;;10336391;28;20086;-61
2023/07/10 09:49:53;;;;;;;4.95;3.75;;;;;;;;;;10336235;28;20086;-61
2023/07/10 09:54:59;;;;;;;5.65;3.67;;;;;;;;;;10334449;28;20088;-60
2023/07/10 09:59:59;;;;;;;4.40;4.00;;;;;;;;;;10335099;28;20079;-60
2023/07/10 10:05:02;;;;;;;8.43;3.75;;;;;;;;;;10335823;28;20068;-61
2023/07/10 10:10:27;;;;;;;6.80;3.45;;;;;;;;;;10335993;28;20075;-61
2023/07/10 10:15:31;;;;;;;4.40;3.65;;;;;;;;;;10298824;28;20974;-60
2023/07/10 10:20:31;;;;;;;9.73;3.33;;;;;;;;;;10332028;28;20079;-61
2023/07/10 10:25:33;;;;;;;8.05;3.70;;;;;;;;;;10334429;28;20066;-61
2023/07/10 10:30:37;;;;;;;5.63;3.50;;;;;;;;;;10332288;28;20079;-60
2023/07/10 10:35:47;;;;;;;4.03;3.63;;;;;;;;;;10333740;28;20075;-61
2023/07/10 10:40:51;;;;;;;7.35;2.90;;;;;;;;;;10327815;28;20083;-61
2023/07/10 10:45:52;;;;;;;4.35;3.50;;;;;;;;;;10328706;28;20076;-61
2023/07/10 10:50:57;;;;;;;8.65;4.13;;;;;;;;;;10329558;28;20492;-61
2023/07/10 10:56:07;;;;;;;5.20;2.63;;;;;;;;;;10330571;28;20072;-61
2023/07/10 11:01:15;;;;;;;5.15;3.25;;;;;;;;;;10332621;28;20075;-61
2023/07/10 11:06:31;;;;;;;4.10;2.58;;;;;;;;;;10330617;28;20079;-61
2023/07/10 11:11:31;;;;;;;6.07;2.85;;;;;;;;;;10332468;28;20075;-61
2023/07/10 11:16:32;;;;;;;4.28;2.85;;;;;;;;;;10326985;28;20051;-60
2023/07/10 11:21:31;;;;;;;4.05;2.80;;;;;;;;;;10328345;28;20079;-60
2023/07/10 11:26:29;;;;;;;4.00;2.90;;;;;;;;;;10332302;28;20494;-60
2023/07/10 11:31:36;;;;;;;27.95;5.57;;;;;;;;;;10329202;28;20083;-61
2023/07/10 11:36:40;;;;;;;3.05;2.60;;;;;;;;;;10328671;28;20079;-61
2023/07/10 11:41:38;;;;;;;;;;;;;;;;;;10331935;28;20082;-60
2023/07/10 11:46:36;;;;;;;10.73;2.90;;;;;;;;;;10330231;28;20366;-61
2023/07/10 11:51:34;;;;;;;3.38;3.05;;;;;;;;;;10330622;28;20068;-61
2023/07/10 11:56:34;;;;;;;3.22;2.70;;;;;;;;;;10330476;28;20052;-59
2023/07/10 12:01:32;;;;;;;7.50;2.80;;;;;;;;;;10329375;28;20078;-59
2023/07/10 12:06:31;;;;;;;6.70;3.33;;;;;;;;;;10328171;28;20079;-60
2023/07/10 12:11:30;;;;;;;5.32;3.15;;;;;;;;;;10330262;28;20095;-59
2023/07/10 12:16:30;;;;;;;4.07;2.92;;;;;;;;;;10329566;28;20134;-61
2023/07/10 12:21:41;;;;;;;4.55;2.70;;;;;;;;;;10330095;28;20072;-60
2023/07/10 12:26:39;;;;;;;5.10;3.15;;;;;;;;;;10329560;28;20068;-60
2023/07/10 12:31:59;;;;;;;3.65;3.05;;;;;;;;;;10329918;28;20069;-61
2023/07/10 12:36:58;;;;;;;8.38;3.10;;;;;;;;;;10329321;28;20505;-60
2023/07/10 12:41:57;;;;;;;8.05;2.90;;;;;;;;;;10329715;28;20563;-60
2023/07/10 12:46:56;;;;;;;2.67;2.47;;;;;;;;;;10332968;28;20106;-60
2023/07/10 12:51:55;;;;;;;5.82;3.28;;;;;;;;;;10336117;28;20083;-61
2023/07/10 12:56:54;;;;;;;3.55;3.25;;;;;;;;;;10332149;28;20080;-61
2023/07/10 13:01:53;;;;;;;3.97;3.15;;;;;;;;;;10336803;28;20087;-61
2023/07/10 13:07:01;;;;;;;3.53;2.40;;;;;;;;;;10338071;28;20072;-62
2023/07/10 13:12:20;;;;;;;6.78;2.80;;;;;;;;;;10335584;28;20071;-61
2023/07/10 13:17:20;;;;;;;10.77;3.22;;;;;;;;;;10333167;28;20105;-61
2023/07/10 13:22:20;;;;;;;6.38;3.45;;;;;;;;;;10335934;28;20048;-61
2023/07/10 13:27:20;;;;;;;8.65;3.53;;;;;;;;;;10336306;28;20184;-61
2023/07/10 13:32:18;;;;;;;4.85;3.25;;;;;;;;;;10336549;28;20076;-60
2023/07/10 13:37:19;;;;;;;6.10;2.95;;;;;;;;;;10334093;28;20300;-61
2023/07/10 13:42:22;;;;;;;4.95;3.28;;;;;;;;;;10335097;28;20063;-61
2023/07/10 13:47:24;;;;;;;6.60;5.32;;;;;;;;;;10333363;28;20504;-60
2023/07/10 13:52:24;;;;;;;5.47;3.97;;;;;;;;;;10335787;28;20066;-61
2023/07/10 13:57:25;;;;;;;5.10;3.03;;;;;;;;;;10334063;28;20100;-61
2023/07/10 14:02:28;;;;;;;6.82;3.08;;;;;;;;;;10331458;28;20063;-61
2023/07/10 14:07:28;;;;;;;7.30;2.92;;;;;;;;;;10335303;28;20106;-61
2023/07/10 14:12:28;;;;;;;5.47;2.80;;;;;;;;;;10334655;28;20469;-60
2023/07/10 14:17:33;;;;;;;5.25;3.22;;;;;;;;;;10333069;28;20087;-61
2023/07/10 14:22:33;;;;;;;5.32;3.05;;;;;;;;;;10332750;28;20078;-61
2023/07/10 14:27:32;;;;;;;4.30;3.08;;;;;;;;;;10333644;28;20076;-60
2023/07/10 14:32:31;;;;;;;8.63;3.17;;;;;;;;;;10333404;28;20071;-60
2023/07/10 14:37:29;;;;;;;5.97;2.90;;;;;;;;;;10333917;28;20072;-60
2023/07/10 14:42:27;;;;;;;7.32;2.60;;;;;;;;;;10334596;28;20075;-60
2023/07/10 14:47:30;;;;;;;2.92;2.63;;;;;;;;;;10332485;28;20072;-62
2023/07/10 14:52:30;;;;;;;4.22;2.88;;;;;;;;;;10333320;28;20068;-61
2023/07/10 14:57:29;;;;;;;5.88;3.30;;;;;;;;;;10333617;28;20072;-61
2023/07/10 15:02:29;;;;;;;5.82;2.95;;;;;;;;;;10332098;28;20068;-60
2023/07/10 15:07:27;;;;;;;4.00;3.15;;;;;;;;;;10331261;28;20075;-61
2023/07/10 15:12:27;;;;;;;6.60;3.03;;;;;;;;;;10333036;28;20067;-62
2023/07/10 15:17:26;;;;;;;4.63;3.53;;;;;;;;;;10331849;28;20080;-61
2023/07/10 15:22:25;;;;;;;9.63;3.30;;;;;;;;;;10331821;28;20072;-61
2023/07/10 15:27:27;;;;;;;10.95;4.55;;;;;;;;;;10330711;28;20493;-61
2023/07/10 15:32:26;;;;;;;7.93;3.55;;;;;;;;;;10332629;28;20075;-61
2023/07/10 15:37:31;;;;;;;4.50;3.30;;;;;;;;;;10332539;28;20146;-61
2023/07/10 15:42:32;;;;;;;7.25;3.17;;;;;;;;;;10337795;28;20150;-61
2023/07/10 15:47:30;;;;;;;8.88;4.13;;;;;;;;;;10330288;28;20084;-60
2023/07/10 15:52:34;;;;;;;7.25;3.15;;;;;;;;;;10341191;28;20083;-60
2023/07/10 15:57:32;;;;;;;16.33;3.65;;;;;;;;;;10324741;28;20151;-60
2023/07/10 16:02:30;;;;;;;6.53;3.97;;;;;;;;;;10323467;28;20119;-60
2023/07/10 16:07:30;;;;;;;7.40;3.85;;;;;;;;;;10332743;28;20079;-60
2023/07/10 16:12:28;;;;;;;9.90;3.92;;;;;;;;;;10325450;28;20087;-61
2023/07/10 16:17:26;;;;;;;10.05;3.92;;;;;;;;;;10304378;28;20080;-61
2023/07/10 16:22:24;;;;;;;6.18;3.80;;;;;;;;;;10339087;28;20068;-61
2023/07/10 16:27:24;;;;;;;7.05;3.10;;;;;;;;;;10342870;28;20497;-61
2023/07/10 16:32:23;;;;;;;6.40;3.88;;;;;;;;;;10343039;28;20076;-61
2023/07/10 16:37:21;;;;;;;3.15;2.58;;;;;;;;;;10339047;28;20437;-61
2023/07/10 16:42:19;;;;;;;6.00;3.58;;;;;;;;;;10342336;28;20078;-61
2023/07/10 16:47:19;;;;;;;5.10;3.70;;;;;;;;;;10343519;28;20087;-62
2023/07/10 16:52:17;;;;;;;5.85;3.25;;;;;;;;;;10340490;28;20454;-61
2023/07/10 16:57:17;;;;;;;7.55;3.25;;;;;;;;;;10342705;28;20099;-60
2023/07/10 17:02:22;;;;;;;11.90;4.10;;;;;;;;;;10333992;28;20076;-60
2023/07/10 17:07:20;;;;;;;12.10;3.45;;;;;;;;;;10339718;28;20091;-61
2023/07/10 17:12:19;;;;;;;5.57;3.53;;;;;;;;;;10335246;28;20075;-61
2023/07/10 17:17:18;;;;;;;6.32;3.13;;;;;;;;;;10336957;28;20083;-60
2023/07/10 17:22:20;;;;;;;5.90;3.63;;;;;;;;;;10338408;28;20087;-61
2023/07/10 17:27:18;;;;;;;5.78;3.38;;;;;;;;;;10338819;28;20072;-61
2023/07/10 17:32:17;;;;;;;7.60;3.55;;;;;;;;;;10333488;28;20087;-62
2023/07/10 17:37:16;;;;;;;5.78;3.85;;;;;;;;;;10340651;28;21045;-61
2023/07/10 17:42:18;;;;;;;5.00;3.15;;;;;;;;;;10344397;28;20056;-62
2023/07/10 17:47:17;;;;;;;5.28;3.38;;;;;;;;;;10340021;28;20086;-62
2023/07/10 17:52:16;;;;;;;11.27;3.90;;;;;;;;;;10334864;28;20083;-61
2023/07/10 17:57:17;;;;;;;8.57;4.53;;;;;;;;;;10336136;28;20071;-61
2023/07/10 18:02:16;;;;;;;8.55;4.22;;;;;;;;;;10331737;28;20082;-61
2023/07/10 18:07:15;;;;;;;8.55;4.55;;;;;;;;;;10336375;28;20098;-61
2023/07/10 18:12:15;;;;;;;7.30;3.75;;;;;;;;;;10338166;28;20497;-62
2023/07/10 18:17:19;;;;;;;8.45;3.65;;;;;;;;;;10335693;28;20525;-60
2023/07/10 18:22:17;;;;;;;;;;;;;;;;;;10336417;28;20098;-61
2023/07/10 18:27:16;;;;;;;15.40;4.18;;;;;;;;;;10336820;28;19967;-61
2023/07/10 18:32:17;;;;;;;7.75;3.95;;;;;;;;;;10338710;28;20067;-60
2023/07/10 18:37:16;;;;;;;4.90;3.67;;;;;;;;;;10335502;28;20091;-60
2023/07/10 18:42:18;;;;;;;11.63;4.70;;;;;;;;;;10331120;28;20099;-60
2023/07/10 18:47:17;;;;;;;11.52;4.95;;;;;;;;;;10338709;28;20087;-61
2023/07/10 18:52:22;;;;;;;7.15;3.63;;;;;;;;;;10333701;28;20055;-60
2023/07/10 18:57:21;;;;;;;8.57;5.07;;;;;;;;;;10321121;28;20099;-60
2023/07/10 19:02:20;;;;;;;10.00;5.00;;;;;;;;;;10314565;28;20072;-60
2023/07/10 19:07:19;;;;;;;10.90;5.32;;;;;;;;;;10339448;28;20468;-60
2023/07/10 19:12:17;;;;;;;11.32;4.30;;;;;;;;;;10318116;28;20086;-61
2023/07/10 19:17:17;;;;;;;9.93;4.65;;;;;;;;;;10335407;28;20504;-60
2023/07/10 19:22:17;;;;;;;7.45;4.30;;;;;;;;;;10341712;28;20086;-60
2023/07/10 19:27:16;;;;;;;11.93;4.10;;;;;;;;;;10332197;28;20090;-61
2023/07/10 19:32:18;;;;;;;12.93;4.50;;;;;;;;;;10330870;28;20076;-61
2023/07/10 19:37:18;;;;;;;9.73;4.85;;;;;;;;;;10331604;28;20071;-61
2023/07/10 19:42:17;;;;;;;5.75;3.67;;;;;;;;;;10334384;28;20083;-60
2023/07/10 19:47:16;;;;;;;10.95;4.68;;;;;;;;;;10336629;28;20084;-60
2023/07/10 19:52:16;;;;;;;9.23;3.80;;;;;;;;;;10331095;28;20514;-61
2023/07/10 19:57:17;;;;;;;8.65;3.50;;;;;;;;;;10323916;28;20502;-60
2023/07/10 20:02:17;;;;;;;6.20;3.55;;;;;;;;;;10332971;28;20142;-60
2023/07/10 20:07:15;;;;;;;7.63;3.65;;;;;;;;;;10333302;28;20091;-59
2023/07/10 20:12:19;;;;;;;11.38;3.90;;;;;;;;;;10337025;28;20064;-61
2023/07/10 20:17:17;;;;;;;;;;;;;;;;;;10333115;28;20095;-61
2023/07/10 20:22:16;;;;;;;7.75;4.18;;;;;;;;;;10332390;28;19959;-62
2023/07/10 20:27:14;;;;;;;9.25;4.55;;;;;;;;;;10335346;28;20110;-61
2023/07/10 20:32:14;;;;;;;9.10;4.30;;;;;;;;;;10318707;28;20462;-60
2023/07/10 20:37:12;;;;;;;3.65;3.28;;;;;;;;;;10333729;28;20064;-62
2023/07/10 20:42:13;;;;;;;10.52;4.05;;;;;;;;;;10335620;28;20078;-61
2023/07/10 20:47:14;;;;;;;5.47;3.72;;;;;;;;;;10329104;28;20092;-62
2023/07/10 20:52:13;;;;;;;7.55;3.97;;;;;;;;;;10334935;28;20061;-62
2023/07/10 20:57:13;;;;;;;5.15;3.00;;;;;;;;;;10330847;28;20060;-61
2023/07/10 21:02:17;;;;;;;4.10;3.35;;;;;;;;;;10331639;28;20579;-61
2023/07/10 21:07:17;;;;;;;4.63;3.88;;;;;;;;;;10337551;28;20488;-61
2023/07/10 21:12:16;;;;;;;8.68;3.53;;;;;;;;;;10339549;28;20080;-61
2023/07/10 21:17:15;;;;;;;7.35;3.75;;;;;;;;;;10338499;28;20067;-60
2023/07/10 21:22:16;;;;;;;6.68;3.90;;;;;;;;;;10338988;28;20068;-60
2023/07/10 21:27:17;;;;;;;8.63;4.38;;;;;;;;;;10337857;28;20068;-61
2023/07/10 21:32:17;;;;;;;4.82;3.85;;;;;;;;;;10340304;28;20075;-61
2023/07/10 21:37:19;;;;;;;7.22;4.00;;;;;;;;;;10336627;28;20472;-62
2023/07/10 21:42:19;;;;;;;9.57;3.92;;;;;;;;;;10336798;28;20106;-62
2023/07/10 21:47:17;;;;;;;8.32;4.68;;;;;;;;;;10329785;28;20091;-61
2023/07/10 21:52:17;;;;;;;11.15;4.75;;;;;;;;;;10337852;28;20072;-63
2023/07/10 21:57:18;;;;;;;20.98;4.82;;;;;;;;;;10336006;28;20072;-61
2023/07/10 22:02:17;;;;;;;6.88;4.15;;;;;;;;;;10338613;28;20704;-61
2023/07/10 22:07:15;;;;;;;6.00;4.85;;;;;;;;;;10338887;28;20072;-60
2023/07/10 22:12:15;;;;;;;9.02;4.35;;;;;;;;;;10336221;28;20441;-61
2023/07/10 22:17:18;;;;;;;11.27;5.13;;;;;;;;;;10335835;28;20059;-60
2023/07/10 22:22:17;;;;;;;10.95;4.53;;;;;;;;;;10340016;28;20080;-61
2023/07/10 22:27:17;;;;;;;9.20;4.33;;;;;;;;;;10334946;28;20075;-61
2023/07/10 22:32:15;;;;;;;19.42;5.05;;;;;;;;;;10333296;28;20080;-61
2023/07/10 22:37:14;;;;;;;7.18;4.10;;;;;;;;;;10335196;28;20071;-60
2023/07/10 22:42:12;;;;;;;13.98;4.75;;;;;;;;;;10334624;28;20207;-60
2023/07/10 22:47:12;;;;;;;8.05;4.65;;;;;;;;;;10335376;28;20084;-59
2023/07/10 22:52:10;;;;;;;8.68;4.20;;;;;;;;;;10336111;28;20067;-60
2023/07/10 22:57:10;;;;;;;8.07;4.90;;;;;;;;;;10335530;28;20097;-60
2023/07/10 23:02:09;;;;;;;9.02;4.18;;;;;;;;;;10334493;28;20494;-60
2023/07/10 23:07:09;;;;;;;8.30;4.50;;;;;;;;;;10336311;28;20061;-60
2023/07/10 23:12:07;;;;;;;7.78;5.15;;;;;;;;;;10333774;28;20477;-60
2023/07/10 23:17:06;;;;;;;9.10;4.70;;;;;;;;;;10335975;28;20074;-60
2023/07/10 23:22:05;;;;;;;6.93;4.30;;;;;;;;;;10334962;28;20072;-60
2023/07/10 23:27:05;;;;;;;6.18;3.97;;;;;;;;;;10334625;28;20489;-61
2023/07/10 23:32:03;;;;;;;10.20;4.55;;;;;;;;;;10332569;28;20068;-60
2023/07/10 23:37:01;;;;;;;10.82;4.55;;;;;;;;;;10335486;28;20080;-60
2023/07/10 23:41:59;;;;;;;11.48;4.93;;;;;;;;;;10335811;28;20059;-60
2023/07/10 23:46:59;;;;;;;10.80;5.07;;;;;;;;;;10334555;28;20071;-61
2023/07/10 23:51:57;;;;;;;7.53;5.18;;;;;;;;;;10331531;28;20098;-61
2023/07/10 23:56:55;;;;;;;11.05;4.90;;;;;;;;;;10333891;28;20078;-60
